Time;durP1;ratioP1;P1;durP2;ratioP2;P2;SDS_P1;SDS_P2;PMS_P1;PMS_P2;Temp;Humidity;BMP_temperature;BMP_pressure;BME280_temperature;BME280_humidity;BME280_pressure;Samples;Min_cycle;Max_cycle;Signal;HPM_P1;HPM_P2
2022/01/12 00:02:04;;;;;;;23.02;14.32;;;;;;;6.15;57.20;100097.88;5093353;28;20036;-50
2022/01/12 00:04:30;;;;;;;20.77;14.98;;;;;;;6.18;57.50;100098.44;5093318;28;20016;-49
2022/01/12 00:06:56;;;;;;;16.58;13.23;;;;;;;6.31;56.98;100097.34;5093253;28;20016;-50
2022/01/12 00:09:22;;;;;;;19.67;15.07;;;;;;;6.27;56.89;100102.00;5093176;28;20436;-50
2022/01/12 00:11:48;;;;;;;24.08;15.32;;;;;;;6.16;56.99;100102.97;5093148;28;20032;-50
2022/01/12 00:14:14;;;;;;;23.05;15.18;;;;;;;6.05;57.41;100104.88;5091855;28;20397;-50
2022/01/12 00:16:41;;;;;;;24.95;16.95;;;;;;;5.97;57.58;100103.75;5090747;28;20479;-51
2022/01/12 00:19:07;;;;;;;202.15;175.35;;;;;;;5.89;57.53;100102.78;5091724;28;20021;-50
2022/01/12 00:21:33;;;;;;;59.17;50.17;;;;;;;5.78;58.02;100108.94;5092933;28;20074;-52
2022/01/12 00:23:58;;;;;;;81.28;68.40;;;;;;;5.72;58.35;100106.88;5091649;28;20034;-50
2022/01/12 00:34:30;;;;;;;27.77;15.50;;;;;;;5.59;58.68;100104.47;5093074;28;19961;-50
2022/01/12 00:36:55;;;;;;;25.20;16.88;;;;;;;5.44;58.68;100103.22;5092671;28;20128;-51
2022/01/12 00:39:22;;;;;;;21.23;15.23;;;;;;;5.32;58.16;100095.50;5092651;28;20016;-50
2022/01/12 00:41:48;;;;;;;20.98;15.88;;;;;;;5.14;58.82;100100.50;5092598;28;20518;-51
2022/01/12 00:44:23;;;;;;;24.92;17.73;;;;;;;4.97;59.76;100109.72;5092638;28;20020;-50
2022/01/12 00:46:51;;;;;;;26.52;19.27;;;;;;;4.88;59.67;100107.88;5091263;28;20035;-48
2022/01/12 00:49:16;;;;;;;28.40;19.50;;;;;;;4.78;59.96;100104.41;5092479;28;20024;-50
2022/01/12 00:51:42;;;;;;;24.00;16.25;;;;;;;4.70;60.17;100099.03;5092409;28;20030;-51
2022/01/12 00:54:08;;;;;;;21.25;16.45;;;;;;;4.63;60.38;100109.13;5092419;28;20497;-50
2022/01/12 00:56:34;;;;;;;22.05;17.17;;;;;;;4.54;60.32;100110.69;5092416;28;20028;-50
2022/01/12 00:59:01;;;;;;;26.50;17.05;;;;;;;4.50;60.70;100106.69;5092354;28;20035;-50
2022/01/12 01:01:27;;;;;;;23.33;16.42;;;;;;;4.49;60.69;100107.66;5092258;28;20028;-50
2022/01/12 01:03:54;;;;;;;22.40;14.82;;;;;;;4.46;61.04;100109.66;5090952;28;20067;-50
2022/01/12 01:06:21;;;;;;;24.58;16.90;;;;;;;4.56;61.34;100110.56;5090924;28;20024;-50
2022/01/12 01:08:51;;;;;;;22.95;16.60;;;;;;;4.60;60.88;100106.75;5090819;28;20020;-49
2022/01/12 01:11:21;;;;;;;32.83;25.10;;;;;;;4.65;61.08;100108.97;5092123;28;20020;-50
2022/01/12 01:13:57;;;;;;;25.13;17.25;;;;;;;4.70;61.47;100109.44;5090781;28;20027;-50
2022/01/12 01:16:49;;;;;;;24.55;15.38;;;;;;;4.76;61.15;100107.13;5092118;28;20051;-49
2022/01/12 01:27:26;;;;;;;26.60;18.23;;;;;;;4.88;61.32;100123.50;5091486;28;20109;-50
2022/01/12 01:29:54;;;;;;;21.85;15.55;;;;;;;4.91;61.12;100118.06;5090489;28;20024;-51
2022/01/12 01:32:20;;;;;;;20.90;13.82;;;;;;;5.02;61.34;100131.94;5091846;28;20032;-50
2022/01/12 01:34:48;;;;;;;25.45;16.08;;;;;;;5.14;60.28;100126.50;5091873;28;20034;-48
2022/01/12 01:37:14;;;;;;;26.48;15.70;;;;;;;5.36;60.02;100137.72;5091895;28;20021;-48
2022/01/12 01:39:40;;;;;;;21.95;15.63;;;;;;;5.55;60.08;100131.75;5091837;28;20103;-49
2022/01/12 01:42:17;;;;;;;23.38;16.02;;;;;;;5.73;59.97;100134.53;5091778;28;20466;-48
2022/01/12 01:55:26;;;;;;;24.50;17.55;;;;;;;5.07;60.05;100130.59;5091961;28;20032;-49
2022/01/12 01:57:52;;;;;;;22.40;17.08;;;;;;;4.93;60.41;100134.34;5091654;28;20401;-48
2022/01/12 02:00:23;;;;;;;32.78;25.63;;;;;;;4.68;61.03;100132.94;5090270;28;20043;-48
2022/01/12 02:02:50;;;;;;;25.13;17.90;;;;;;;4.53;61.32;100136.84;5091565;28;20032;-47
2022/01/12 02:05:16;;;;;;;21.02;16.40;;;;;;;4.48;61.56;100139.78;5091570;28;20055;-48
2022/01/12 02:07:43;;;;;;;35.40;24.25;;;;;;;4.71;61.68;100137.06;5091567;28;20063;-51
2022/01/12 02:10:09;;;;;;;26.30;16.20;;;;;;;4.89;61.48;100132.97;5090104;28;20039;-48
2022/01/12 02:12:35;;;;;;;27.25;18.50;;;;;;;5.02;61.27;100135.34;5090190;28;20051;-50
2022/01/12 02:15:03;;;;;;;22.73;14.90;;;;;;;5.08;60.29;100136.63;5091547;28;20103;-48
2022/01/12 02:17:41;;;;;;;22.85;15.90;;;;;;;5.05;60.64;100145.53;5091479;28;20020;-49
2022/01/12 02:36:59;;;;;;;24.67;16.35;;;;;;;4.99;60.23;100125.22;5091339;28;20551;-50
2022/01/12 02:42:09;;;;;;;24.17;14.52;;;;;;;4.85;60.83;100133.31;5094984;28;20028;-51
2022/01/12 02:55:49;;;;;;;24.50;16.40;;;;;;;5.35;60.58;100134.28;5052487;28;20521;-49
2022/01/12 02:58:14;;;;;;;24.05;15.85;;;;;;;5.43;59.96;100131.00;5035369;28;20025;-49
2022/01/12 03:01:18;;;;;;;21.08;15.98;;;;;;;5.47;59.94;100132.41;5035337;28;20119;-48
2022/01/12 03:03:31;;;;;;;26.63;17.33;;;;;;;5.57;59.87;100127.22;5051102;28;20044;-48
2022/01/12 03:05:59;;;;;;;29.95;15.30;;;;;;;5.59;59.53;100130.53;5052086;28;20044;-48
2022/01/12 03:08:27;;;;;;;21.55;15.32;;;;;;;5.59;58.79;100133.13;5051953;28;20029;-49
2022/01/12 03:10:53;;;;;;;21.70;15.18;;;;;;;5.58;59.29;100134.09;5051804;28;20117;-49
2022/01/12 03:13:20;;;;;;;25.83;16.08;;;;;;;5.59;58.66;100133.97;5051897;28;20100;-48
2022/01/12 03:15:48;;;;;;;23.35;16.65;;;;;;;5.62;58.77;100135.47;5051846;28;20039;-50
2022/01/12 03:18:15;;;;;;;23.02;16.30;;;;;;;5.55;59.33;100137.81;5051849;28;20021;-49
2022/01/12 03:20:41;;;;;;;25.73;16.60;;;;;;;5.53;59.71;100137.09;5057038;28;20664;-48
2022/01/12 03:23:07;;;;;;;22.52;16.13;;;;;;;5.52;58.78;100142.44;5094217;28;20051;-49
2022/01/12 03:25:32;;;;;;;24.75;17.08;;;;;;;5.53;59.01;100144.06;5092793;28;20052;-49
2022/01/12 03:28:01;;;;;;;23.80;16.58;;;;;;;5.58;58.89;100152.31;5092526;28;20067;-49
2022/01/12 03:30:34;;;;;;;26.88;18.27;;;;;;;5.61;58.93;100154.66;5093918;28;20504;-48
2022/01/12 03:33:12;;;;;;;23.65;15.43;;;;;;;5.59;58.47;100152.19;5094069;28;20043;-48
2022/01/12 03:36:12;;;;;;;24.02;18.08;;;;;;;5.59;58.19;100154.81;5093992;28;20024;-49
2022/01/12 03:38:35;;;;;;;24.20;16.08;;;;;;;5.49;58.65;100155.72;5093760;28;20042;-49
2022/01/12 03:41:02;;;;;;;27.10;18.15;;;;;;;5.51;58.48;100159.00;5093816;28;20025;-49
2022/01/12 03:43:27;;;;;;;22.00;16.67;;;;;;;5.52;58.59;100153.66;5093852;28;20024;-48
2022/01/12 03:45:53;;;;;;;28.30;19.02;;;;;;;5.54;58.87;100150.94;5092368;28;20025;-48
2022/01/12 03:48:18;;;;;;;25.60;17.60;;;;;;;5.51;58.27;100153.78;5092357;28;20028;-48
2022/01/12 03:50:44;;;;;;;51.03;42.80;;;;;;;5.46;58.54;100154.19;5093417;28;20437;-48
2022/01/12 03:53:10;;;;;;;56.45;45.03;;;;;;;5.44;59.16;100152.69;5093583;28;20547;-48
2022/01/12 03:55:36;;;;;;;28.55;20.55;;;;;;;5.40;58.41;100155.53;5093493;28;20020;-48
2022/01/12 03:58:02;;;;;;;52.00;38.53;;;;;;;5.43;58.80;100154.44;5093513;28;20020;-49
2022/01/12 04:00:28;;;;;;;29.85;24.48;;;;;;;5.60;58.76;100150.41;5093393;28;20035;-48
2022/01/12 04:02:54;;;;;;;30.85;20.23;;;;;;;5.53;57.79;100151.88;5093361;28;20024;-49
2022/01/12 04:08:20;;;;;;;25.95;20.02;;;;;;;5.34;58.51;100160.44;5050821;28;20538;-48
2022/01/12 04:10:47;;;;;;;24.75;18.50;;;;;;;5.38;58.64;100154.03;5033976;28;20127;-51
2022/01/12 04:13:14;;;;;;;24.23;18.40;;;;;;;5.44;58.41;100163.09;5033973;28;20025;-49
2022/01/12 04:15:45;;;;;;;33.72;25.02;;;;;;;5.52;58.23;100160.66;5034007;28;20017;-49
2022/01/12 04:18:11;;;;;;;21.98;17.55;;;;;;;5.52;58.35;100163.28;5033956;28;20486;-48
2022/01/12 04:20:57;;;;;;;35.78;29.67;;;;;;;5.48;58.44;100154.06;5033773;28;20094;-49
2022/01/12 04:23:23;;;;;;;28.02;22.67;;;;;;;5.22;58.12;100161.50;5050597;28;20033;-48
2022/01/12 04:25:56;;;;;;;30.98;22.95;;;;;;;5.14;58.83;100164.72;5050291;28;20056;-48
2022/01/12 04:28:23;;;;;;;34.40;24.98;;;;;;;5.18;59.14;100171.31;5050207;28;20045;-48
2022/01/12 04:30:50;;;;;;;30.80;26.92;;;;;;;5.29;58.78;100165.22;5050322;28;20044;-48
2022/01/12 04:33:17;;;;;;;38.95;28.55;;;;;;;5.29;58.87;100175.63;5033628;28;20048;-49
2022/01/12 04:35:49;;;;;;;61.72;50.65;;;;;;;5.37;58.74;100173.19;5050331;28;20380;-49
2022/01/12 04:38:17;;;;;;;29.45;21.13;;;;;;;5.44;58.73;100178.72;5050260;28;20060;-49
2022/01/12 04:40:43;;;;;;;27.35;20.85;;;;;;;5.42;58.52;100175.44;5050235;28;20064;-49
2022/01/12 04:43:10;;;;;;;23.25;18.63;;;;;;;5.32;58.63;100186.59;5058858;28;20039;-48
2022/01/12 04:45:45;;;;;;;24.70;17.35;;;;;;;5.31;58.75;100187.56;5092529;28;20073;-48
2022/01/12 04:50:44;;;;;;;22.02;17.67;;;;;;;5.45;58.69;100188.16;5092482;28;20047;-49
2022/01/12 04:53:12;;;;;;;27.23;17.73;;;;;;;5.39;58.37;100192.97;5092497;28;20221;-47
2022/01/12 04:55:38;;;;;;;24.58;17.33;;;;;;;5.39;58.31;100202.53;5092411;28;20094;-48
2022/01/12 04:58:05;;;;;;;28.17;18.02;;;;;;;5.44;57.99;100197.75;5092385;28;20016;-48
2022/01/12 05:00:33;;;;;;;25.20;19.08;;;;;;;5.51;58.20;100205.88;5092328;28;20023;-49
2022/01/12 05:13:41;;;;;;;22.85;17.33;;;;;;;5.53;57.08;100202.22;5092183;28;20027;-49
2022/01/12 05:16:10;;;;;;;22.73;16.13;;;;;;;5.52;57.65;100207.53;5092113;28;20528;-49
2022/01/12 05:18:35;;;;;;;22.48;16.02;;;;;;;5.51;56.96;100211.91;5092286;28;20027;-48
2022/01/12 05:21:02;;;;;;;25.67;17.45;;;;;;;5.40;57.03;100212.81;5092043;28;20028;-48
2022/01/12 05:23:28;;;;;;;19.85;15.18;;;;;;;5.32;56.80;100215.25;5092028;28;20094;-48
2022/01/12 05:25:54;;;;;;;24.90;16.80;;;;;;;5.18;56.56;100226.78;5090695;28;20038;-49
2022/01/12 05:28:22;;;;;;;23.08;16.67;;;;;;;5.09;56.98;100229.34;5091696;28;20525;-47
2022/01/12 05:30:50;;;;;;;21.88;16.10;;;;;;;4.97;56.73;100232.00;5090521;28;20020;-51
2022/01/12 05:33:17;;;;;;;23.45;15.50;;;;;;;4.88;56.94;100224.94;5090613;28;20070;-50
2022/01/12 05:35:43;;;;;;;27.50;17.35;;;;;;;4.85;57.37;100235.63;5091902;28;20138;-51
2022/01/12 05:38:12;;;;;;;31.17;18.45;;;;;;;4.90;57.46;100230.84;5091840;28;20051;-51
2022/01/12 05:40:45;;;;;;;23.55;16.48;;;;;;;4.93;57.28;100224.56;5091839;28;20043;-51
2022/01/12 05:43:11;;;;;;;30.40;21.85;;;;;;;4.87;56.97;100232.88;5091832;28;20039;-51
2022/01/12 05:45:39;;;;;;;22.15;16.40;;;;;;;4.78;57.78;100239.66;5091795;28;20501;-48
2022/01/12 05:50:35;;;;;;;23.25;17.10;;;;;;;4.91;57.80;100248.13;5091972;28;20579;-47
2022/01/12 05:53:01;;;;;;;22.27;16.40;;;;;;;5.06;57.30;100245.22;5090447;28;20188;-48
2022/01/12 05:55:27;;;;;;;32.50;18.25;;;;;;;5.11;57.31;100253.44;5091663;28;20023;-48
2022/01/12 05:57:53;;;;;;;23.35;15.13;;;;;;;5.14;56.21;100261.84;5091687;28;20016;-49
2022/01/12 06:00:20;;;;;;;30.77;16.25;;;;;;;5.11;56.54;100258.66;5091628;28;20553;-49
2022/01/12 06:02:46;;;;;;;28.23;16.15;;;;;;;5.08;56.27;100261.53;5091645;28;20505;-48
2022/01/12 06:05:14;;;;;;;23.48;16.10;;;;;;;5.08;56.55;100271.94;5091547;28;20097;-49
2022/01/12 06:07:41;;;;;;;25.83;16.33;;;;;;;5.05;56.35;100266.97;5091628;28;20065;-48
2022/01/12 06:10:08;;;;;;;22.58;15.68;;;;;;;5.07;56.10;100270.25;5091550;28;20498;-48
2022/01/12 06:12:34;;;;;;;22.77;15.32;;;;;;;4.97;55.42;100281.44;5090207;28;20509;-47
2022/01/12 06:14:59;;;;;;;24.33;15.63;;;;;;;4.89;56.29;100275.19;5093551;28;20107;-49
2022/01/12 06:17:25;;;;;;;26.33;18.17;;;;;;;4.80;56.34;100279.38;5095417;28;20047;-48
2022/01/12 06:19:51;;;;;;;26.65;17.13;;;;;;;4.84;56.43;100279.94;5095393;28;20024;-49
2022/01/12 06:22:16;;;;;;;39.45;29.20;;;;;;;4.92;56.29;100278.38;5095297;28;20032;-48
2022/01/12 06:24:42;;;;;;;25.73;17.00;;;;;;;4.83;56.02;100281.72;5094041;28;20884;-49
2022/01/12 06:27:10;;;;;;;29.70;21.88;;;;;;;4.78;56.22;100282.09;5094903;28;20107;-48
2022/01/12 06:29:49;;;;;;;21.88;15.15;;;;;;;4.86;56.26;100294.47;5095140;28;20035;-51
2022/01/12 06:32:15;;;;;;;26.55;20.70;;;;;;;5.04;56.57;100306.97;5095182;28;20035;-50
2022/01/12 06:34:41;;;;;;;23.17;18.70;;;;;;;5.13;56.41;100304.44;5093837;28;20020;-50
2022/01/12 06:37:06;;;;;;;23.33;17.38;;;;;;;5.12;55.29;100315.78;5093716;28;20563;-49
2022/01/12 06:39:32;;;;;;;29.48;21.98;;;;;;;5.08;55.00;100318.78;5094988;28;20107;-50
2022/01/12 06:41:58;;;;;;;23.05;17.38;;;;;;;4.99;55.97;100315.97;5094990;28;20028;-51
2022/01/12 06:44:25;;;;;;;1442.82;770.80;;;;;;;4.96;55.94;100326.59;5094910;28;20028;-50
2022/01/12 06:46:52;;;;;;;769.13;519.45;;;;;;;4.92;56.48;100330.41;5094860;28;20494;-49
2022/01/12 06:49:19;;;;;;;1240.95;719.50;;;;;;;4.88;56.63;100328.19;5094799;28;20481;-52
2022/01/12 06:51:46;;;;;;;425.33;301.00;;;;;;;4.73;56.76;100335.44;5094692;28;20514;-51
2022/01/12 06:54:13;;;;;;;117.85;89.60;;;;;;;4.72;57.06;100341.56;5094740;28;20057;-50
2022/01/12 06:56:40;;;;;;;37.83;24.67;;;;;;;4.80;57.00;100337.41;5094701;28;20042;-51
2022/01/12 06:59:06;;;;;;;31.92;20.25;;;;;;;4.99;56.10;100335.97;5094636;28;20544;-50
2022/01/12 07:01:33;;;;;;;35.22;22.58;;;;;;;5.03;55.18;100332.16;5093281;28;20077;-50
2022/01/12 07:03:59;;;;;;;38.95;24.35;;;;;;;5.11;55.87;100339.31;5094506;28;20032;-50
2022/01/12 07:06:25;;;;;;;31.60;19.75;;;;;;;5.14;54.66;100339.09;5094459;28;20074;-51
2022/01/12 07:08:51;;;;;;;29.50;18.67;;;;;;;5.11;54.28;100344.53;5093167;28;20023;-49
2022/01/12 07:11:17;;;;;;;28.35;17.38;;;;;;;5.09;54.69;100349.88;5092990;28;20027;-51
2022/01/12 07:13:44;;;;;;;26.45;17.08;;;;;;;5.06;54.51;100357.91;5094330;28;20084;-49
2022/01/12 07:16:11;;;;;;;25.40;17.70;;;;;;;5.02;54.64;100371.31;5094312;28;20031;-50
2022/01/12 07:18:37;;;;;;;26.00;16.48;;;;;;;4.95;54.62;100363.16;5094285;28;20085;-50
2022/01/12 07:21:03;;;;;;;19.88;15.35;;;;;;;4.92;54.88;100368.59;5094171;28;20447;-51
2022/01/12 07:23:29;;;;;;;21.05;15.80;;;;;;;4.86;54.48;100369.91;5094200;28;20112;-49
2022/01/12 07:25:55;;;;;;;27.60;16.67;;;;;;;4.75;55.02;100368.19;5092281;28;20494;-49
2022/01/12 07:28:21;;;;;;;29.83;17.23;;;;;;;4.78;54.81;100370.53;5093624;28;20115;-49
2022/01/12 07:30:47;;;;;;;27.13;18.52;;;;;;;4.75;54.28;100372.56;5093955;28;20035;-50
2022/01/12 07:33:13;;;;;;;23.73;17.10;;;;;;;4.75;55.24;100362.16;5093999;28;20596;-51
2022/01/12 07:35:41;;;;;;;26.48;16.73;;;;;;;4.83;54.86;100358.91;5093934;28;20024;-50
2022/01/12 07:38:07;;;;;;;33.70;16.60;;;;;;;4.85;54.34;100360.47;5093844;28;20585;-50
2022/01/12 07:40:35;;;;;;;29.38;17.35;;;;;;;4.88;54.30;100369.81;5093819;28;20027;-50
2022/01/12 07:43:05;;;;;;;20.95;13.05;;;;;;;4.90;54.15;100367.91;5093879;28;20049;-51
2022/01/12 07:45:31;;;;;;;25.00;15.30;;;;;;;4.85;54.02;100375.22;5093799;28;20084;-50
2022/01/12 07:47:57;;;;;;;31.08;15.35;;;;;;;4.86;54.27;100387.31;5093764;28;20099;-50
2022/01/12 07:50:23;;;;;;;34.35;15.52;;;;;;;4.91;53.77;100383.41;5092188;28;20032;-49
2022/01/12 07:52:53;;;;;;;25.67;16.05;;;;;;;4.89;53.63;100377.50;5093650;28;20062;-50
2022/01/12 07:55:22;;;;;;;39.80;17.45;;;;;;;4.98;54.07;100375.91;5093573;28;20102;-51
2022/01/12 07:57:48;;;;;;;31.65;17.17;;;;;;;5.09;53.67;100393.28;5093568;28;20107;-48
2022/01/12 08:00:17;;;;;;;29.48;16.58;;;;;;;5.08;53.77;100384.66;5092170;28;20031;-48
2022/01/12 08:02:43;;;;;;;30.75;16.83;;;;;;;5.14;53.85;100380.72;5093419;28;20024;-50
2022/01/12 08:05:10;;;;;;;25.55;15.98;;;;;;;5.09;53.84;100386.31;5093238;28;20012;-49
2022/01/12 08:07:38;;;;;;;21.25;14.80;;;;;;;4.82;53.65;100389.31;5093340;28;20027;-48
2022/01/12 08:10:06;;;;;;;27.20;16.08;;;;;;;4.47;54.03;100394.69;5093244;28;20050;-49
2022/01/12 08:12:32;;;;;;;23.88;15.63;;;;;;;4.12;55.12;100383.41;5093277;28;20027;-47
2022/01/12 08:14:57;;;;;;;28.75;17.83;;;;;;;3.94;55.84;100388.28;5091858;28;20490;-49
2022/01/12 08:17:23;;;;;;;24.95;15.07;;;;;;;3.96;56.07;100399.38;5091832;28;20032;-50
2022/01/12 08:19:51;;;;;;;24.48;17.27;;;;;;;4.05;56.22;100404.81;5093094;28;20020;-48
2022/01/12 08:22:17;;;;;;;28.00;17.00;;;;;;;4.12;56.10;100413.78;5093016;28;20031;-51
2022/01/12 08:24:43;;;;;;;28.42;17.35;;;;;;;4.19;56.26;100415.00;5093358;28;20020;-50
2022/01/12 08:27:09;;;;;;;26.50;15.70;;;;;;;4.28;56.53;100409.06;5092664;28;20086;-47
2022/01/12 08:29:35;;;;;;;33.22;18.10;;;;;;;4.38;55.96;100414.41;5092978;28;20032;-48
2022/01/12 08:32:02;;;;;;;41.55;19.08;;;;;;;4.57;55.96;100414.66;5093053;28;20044;-49
2022/01/12 08:34:28;;;;;;;27.08;17.40;;;;;;;4.83;55.31;100413.53;5091576;28;20107;-47
2022/01/12 08:36:54;;;;;;;29.45;16.45;;;;;;;5.02;54.62;100407.72;5092017;28;20561;-49
2022/01/12 08:39:20;;;;;;;28.33;17.33;;;;;;;5.19;54.62;100421.06;5091456;28;20105;-51
2022/01/12 08:41:45;;;;;;;28.63;17.17;;;;;;;5.30;54.01;100425.41;5092686;28;20024;-51
2022/01/12 08:44:11;;;;;;;28.27;17.05;;;;;;;5.45;53.71;100420.72;5092615;28;20024;-51
2022/01/12 08:46:40;;;;;;;27.83;17.45;;;;;;;5.61;53.67;100412.50;5091229;28;20474;-51
2022/01/12 08:49:06;;;;;;;26.10;16.83;;;;;;;5.83;53.12;100414.16;5091235;28;20039;-50
2022/01/12 08:51:32;;;;;;;27.90;15.27;;;;;;;6.00;52.96;100420.63;5091141;28;20115;-50
2022/01/12 08:53:58;;;;;;;33.30;17.70;;;;;;;6.08;52.01;100417.38;5091115;28;20107;-49
2022/01/12 08:56:24;;;;;;;25.50;15.98;;;;;;;6.13;51.98;100420.41;5092336;28;20097;-49
2022/01/12 08:58:50;;;;;;;23.55;15.73;;;;;;;6.27;51.77;100427.91;5092470;28;20016;-48
2022/01/12 09:01:16;;;;;;;31.17;17.45;;;;;;;6.46;51.30;100426.34;5092325;28;20023;-48
2022/01/12 09:03:42;;;;;;;25.23;14.93;;;;;;;6.55;51.50;100426.38;5090986;28;20035;-49
2022/01/12 09:06:09;;;;;;;32.80;16.75;;;;;;;6.51;51.46;100427.59;5092234;28;20657;-49
2022/01/12 09:08:40;;;;;;;24.33;16.58;;;;;;;6.47;50.90;100426.22;5092200;28;20072;-49
2022/01/12 09:11:07;;;;;;;35.00;17.63;;;;;;;6.37;51.34;100423.56;5092199;28;20401;-47
2022/01/12 09:13:33;;;;;;;25.02;16.75;;;;;;;6.32;50.71;100419.69;5092168;28;20024;-48
2022/01/12 09:16:00;;;;;;;24.70;15.32;;;;;;;6.33;50.55;100424.75;5092077;28;20040;-49
2022/01/12 09:18:26;;;;;;;28.27;16.92;;;;;;;6.34;50.21;100426.44;5092124;28;20027;-48
2022/01/12 09:20:53;;;;;;;26.48;16.55;;;;;;;6.30;50.51;100421.59;5090713;28;20028;-50
2022/01/12 09:23:19;;;;;;;22.98;16.42;;;;;;;6.16;50.14;100426.19;5092043;28;20026;-49
2022/01/12 09:25:45;;;;;;;29.38;19.70;;;;;;;5.94;51.19;100426.31;5091946;28;20028;-49
2022/01/12 09:28:11;;;;;;;45.22;29.70;;;;;;;5.80;51.34;100430.88;5091732;28;20047;-49
2022/01/12 09:30:37;;;;;;;29.40;16.13;;;;;;;5.94;51.08;100439.34;5091814;28;20032;-48
2022/01/12 09:33:04;;;;;;;29.27;16.23;;;;;;;6.05;51.01;100446.28;5091903;28;20028;-47
2022/01/12 09:35:30;;;;;;;23.77;16.42;;;;;;;5.97;51.24;100452.94;5092007;28;20028;-49
2022/01/12 09:37:56;;;;;;;25.70;16.67;;;;;;;5.89;51.60;100449.31;5091920;28;20031;-49
2022/01/12 09:40:22;;;;;;;26.65;16.67;;;;;;;5.93;51.86;100466.34;5090467;28;20062;-49
2022/01/12 09:42:49;;;;;;;27.02;17.23;;;;;;;5.78;51.57;100464.03;5091893;28;20111;-47
2022/01/12 09:45:18;;;;;;;30.45;16.23;;;;;;;5.87;51.91;100467.66;5090766;28;20028;-48
2022/01/12 09:47:49;;;;;;;23.83;17.48;;;;;;;6.16;51.50;100461.88;5091795;28;20016;-49
2022/01/12 09:50:23;;;;;;;22.95;15.98;;;;;;;6.46;50.82;100458.47;5095889;28;20016;-48
2022/01/12 09:52:50;;;;;;;25.42;14.75;;;;;;;6.55;50.37;100469.91;5094633;28;20032;-48
2022/01/12 09:55:16;;;;;;;24.33;14.30;;;;;;;6.70;49.91;100466.00;5095873;28;20031;-48
2022/01/12 09:57:42;;;;;;;35.45;16.20;;;;;;;6.75;49.66;100466.41;5095884;28;20069;-49
2022/01/12 10:00:10;;;;;;;26.33;15.50;;;;;;;6.78;49.55;100462.72;5095753;28;20052;-49
2022/01/12 10:02:35;;;;;;;23.83;15.25;;;;;;;6.82;49.06;100466.69;5095769;28;20028;-47
2022/01/12 10:05:08;;;;;;;25.38;15.10;;;;;;;6.85;48.18;100470.84;5095689;28;20028;-49
2022/01/12 10:07:34;;;;;;;33.80;16.75;;;;;;;6.93;48.16;100456.19;5095537;28;20028;-49
2022/01/12 10:10:04;;;;;;;25.98;16.85;;;;;;;7.33;48.34;100452.69;5095510;28;20048;-48
2022/01/12 10:12:31;;;;;;;25.52;16.95;;;;;;;8.11;47.02;100450.06;5095615;28;20401;-49
2022/01/12 10:15:00;;;;;;;21.88;16.38;;;;;;;8.48;46.36;100441.44;5095560;28;20025;-49
2022/01/12 10:17:39;;;;;;;25.60;18.05;;;;;;;9.65;44.75;100437.31;5095454;28;20016;-48
2022/01/12 10:20:10;;;;;;;22.67;17.35;;;;;;;10.79;43.25;100438.06;5094036;28;20044;-49
2022/01/12 10:22:37;;;;;;;26.27;18.20;;;;;;;10.94;41.03;100445.31;5095449;28;20034;-48
2022/01/12 10:25:18;;;;;;;26.40;20.15;;;;;;;10.52;40.80;100443.50;5095254;28;20019;-50
2022/01/12 10:27:44;;;;;;;26.00;18.88;;;;;;;10.33;40.57;100452.44;5093685;28;20553;-49
2022/01/12 10:30:19;;;;;;;20.83;15.05;;;;;;;9.75;41.16;100440.69;5095087;28;20071;-47
2022/01/12 10:32:45;;;;;;;21.33;16.40;;;;;;;9.49;41.95;100446.66;5095339;28;20043;-49
2022/01/12 10:35:11;;;;;;;25.75;15.68;;;;;;;9.53;42.24;100445.41;5095368;28;20028;-49
2022/01/12 10:37:36;;;;;;;20.55;14.40;;;;;;;9.50;41.73;100445.72;5095087;28;20031;-50
2022/01/12 10:40:03;;;;;;;25.95;15.27;;;;;;;9.43;42.31;100430.72;5093682;28;20371;-49
2022/01/12 10:42:30;;;;;;;27.88;21.75;;;;;;;9.53;42.30;100434.91;5095253;28;20047;-50
2022/01/12 10:45:01;;;;;;;20.60;15.65;;;;;;;10.53;40.93;100434.66;5094947;28;20049;-49
2022/01/12 10:47:31;;;;;;;18.98;15.07;;;;;;;10.82;39.65;100433.47;5094976;28;20027;-48
2022/01/12 10:50:00;;;;;;;24.00;13.85;;;;;;;10.31;39.96;100433.41;5094885;28;20023;-48
2022/01/12 10:52:29;;;;;;;31.38;27.15;;;;;;;9.85;41.05;100432.72;5094854;28;20086;-49
2022/01/12 10:55:01;;;;;;;21.60;14.90;;;;;;;9.65;41.67;100435.50;5094641;28;20019;-49
2022/01/12 10:57:34;;;;;;;24.23;17.45;;;;;;;9.55;41.17;100438.22;5094818;28;20062;-49
2022/01/12 11:00:26;;;;;;;27.58;17.48;;;;;;;9.09;41.81;100432.19;5093660;28;20494;-48
2022/01/12 11:02:55;;;;;;;18.20;14.30;;;;;;;8.87;42.42;100432.59;5094647;28;20054;-49
2022/01/12 11:05:23;;;;;;;16.70;13.63;;;;;;;8.85;42.12;100434.53;5094545;28;20020;-50
2022/01/12 11:07:50;;;;;;;18.80;13.50;;;;;;;8.86;42.35;100434.41;5093205;28;20036;-49
2022/01/12 11:10:16;;;;;;;18.70;13.07;;;;;;;8.79;42.46;100436.78;5093022;28;20028;-48
2022/01/12 11:12:42;;;;;;;18.30;13.55;;;;;;;8.68;42.86;100436.16;5093086;28;20088;-50
2022/01/12 11:15:10;;;;;;;17.52;13.23;;;;;;;8.36;42.64;100432.91;5093004;28;20118;-50
2022/01/12 11:17:40;;;;;;;18.63;12.35;;;;;;;8.23;43.68;100428.97;5094306;28;20028;-48
2022/01/12 11:23:56;;;;;;;21.02;12.20;;;;;;;7.87;43.91;100431.38;5071975;28;20064;-52
2022/01/12 11:29:46;;;;;;;15.85;11.60;;;;;;;8.03;43.71;100430.78;5059526;28;20118;-51
2022/01/12 11:34:37;;;;;;;16.90;12.50;;;;;;;7.80;43.57;100446.78;5071704;28;20033;-49
2022/01/12 11:37:21;;;;;;;19.88;13.38;;;;;;;7.64;44.72;100436.88;5071496;28;20052;-49
2022/01/12 11:39:47;;;;;;;17.88;14.20;;;;;;;7.60;44.90;100440.75;5071570;28;20033;-48
2022/01/12 11:42:13;;;;;;;17.42;13.18;;;;;;;7.46;45.28;100449.00;5071377;28;20216;-50
2022/01/12 11:44:39;;;;;;;19.58;14.63;;;;;;;7.44;45.28;100443.06;5071341;28;20108;-48
2022/01/12 11:47:21;;;;;;;16.42;12.30;;;;;;;7.43;45.58;100442.25;5071319;28;20380;-47
2022/01/12 11:49:52;;;;;;;15.93;11.95;;;;;;;7.34;44.79;100432.63;5071234;28;20048;-48
2022/01/12 11:52:26;;;;;;;16.88;12.73;;;;;;;7.19;44.92;100429.59;5071248;28;20044;-49
2022/01/12 11:55:14;;;;;;;18.35;12.25;;;;;;;7.17;45.25;100429.72;5091263;28;20035;-49
2022/01/12 11:57:50;;;;;;;18.98;14.15;;;;;;;7.19;45.59;100430.41;5091900;28;20093;-49
2022/01/12 12:00:36;;;;;;;19.70;15.43;;;;;;;7.26;45.96;100427.25;5092248;28;20051;-49
2022/01/12 12:03:21;;;;;;;19.30;13.95;;;;;;;7.28;45.20;100423.53;5093500;28;20493;-48
2022/01/12 12:05:54;;;;;;;17.57;13.33;;;;;;;7.34;45.17;100428.22;5093524;28;20444;-49
2022/01/12 12:08:24;;;;;;;21.33;12.90;;;;;;;7.34;44.66;100435.22;5092080;28;20041;-49
2022/01/12 12:10:52;;;;;;;17.15;13.40;;;;;;;7.14;45.32;100432.63;5093058;28;20031;-48
2022/01/12 12:13:21;;;;;;;18.40;13.27;;;;;;;7.07;45.87;100430.66;5093190;28;20024;-48
2022/01/12 12:15:47;;;;;;;16.33;12.20;;;;;;;6.98;45.08;100429.66;5091832;28;20486;-49
2022/01/12 12:18:15;;;;;;;19.00;13.60;;;;;;;6.95;45.81;100432.56;5108834;28;20024;-50
2022/01/12 12:20:41;;;;;;;20.05;12.90;;;;;;;6.95;45.65;100428.16;5093137;28;20127;-51
2022/01/12 12:23:06;;;;;;;21.95;12.98;;;;;;;6.90;45.46;100437.34;5091726;28;20557;-48
2022/01/12 12:25:35;;;;;;;20.17;13.43;;;;;;;6.80;45.98;100429.47;5093022;28;20109;-48
2022/01/12 12:28:04;;;;;;;22.33;14.27;;;;;;;6.73;46.26;100438.81;5093008;28;20016;-48
2022/01/12 12:30:32;;;;;;;18.92;13.32;;;;;;;6.79;46.22;100431.28;5091276;28;20094;-49
2022/01/12 12:33:11;;;;;;;20.70;13.05;;;;;;;6.89;46.53;100438.31;5091598;28;20028;-48
2022/01/12 12:35:39;;;;;;;23.05;13.75;;;;;;;6.82;47.00;100427.56;5092858;28;20115;-50
2022/01/12 12:38:08;;;;;;;22.73;13.70;;;;;;;6.78;47.02;100428.78;5092767;28;20034;-50
2022/01/12 12:40:39;;;;;;;19.33;13.93;;;;;;;6.73;46.43;100433.59;5092720;28;20020;-50
2022/01/12 12:43:08;;;;;;;16.80;13.32;;;;;;;6.77;46.21;100432.38;5091444;28;20024;-50
2022/01/12 12:45:42;;;;;;;18.17;13.65;;;;;;;6.66;45.93;100433.31;5092640;28;20028;-49
2022/01/12 12:48:15;;;;;;;21.15;13.45;;;;;;;6.44;46.61;100426.47;5092680;28;20038;-48